sensor_id;sensor_type;location;lat;lon;timestamp;P1;durP1;ratioP1;P2;durP2;ratioP2
69381;SDS011;56560;50.692;12.844;2023-07-09T00:02:01;16.88;;;9.23;;
69381;SDS011;56560;50.692;12.844;2023-07-09T00:04:26;16.42;;;8.77;;
69381;SDS011;56560;50.692;12.844;2023-07-09T00:06:54;16.52;;;8.20;;
69381;SDS011;56560;50.692;12.844;2023-07-09T00:09:22;14.15;;;8.45;;
69381;SDS011;56560;50.692;12.844;2023-07-09T00:11:49;14.90;;;8.20;;
69381;SDS011;56560;50.692;12.844;2023-07-09T00:14:15;14.93;;;8.40;;
69381;SDS011;56560;50.692;12.844;2023-07-09T00:16:42;13.50;;;7.75;;
69381;SDS011;56560;50.692;12.844;2023-07-09T00:19:13;14.20;;;7.80;;
69381;SDS011;56560;50.692;12.844;2023-07-09T00:21:43;15.48;;;8.07;;
69381;SDS011;56560;50.692;12.844;2023-07-09T00:24:10;13.63;;;7.63;;
69381;SDS011;56560;50.692;12.844;2023-07-09T00:26:37;13.35;;;7.75;;
69381;SDS011;56560;50.692;12.844;2023-07-09T00:29:07;18.80;;;8.10;;
69381;SDS011;56560;50.692;12.844;2023-07-09T00:31:37;16.42;;;8.15;;
69381;SDS011;56560;50.692;12.844;2023-07-09T00:34:09;14.55;;;8.63;;
69381;SDS011;56560;50.692;12.844;2023-07-09T00:36:39;14.52;;;8.35;;
69381;SDS011;56560;50.692;12.844;2023-07-09T00:39:18;14.35;;;8.25;;
69381;SDS011;56560;50.692;12.844;2023-07-09T00:41:46;14.38;;;8.20;;
69381;SDS011;56560;50.692;12.844;2023-07-09T00:44:23;15.05;;;8.15;;
69381;SDS011;56560;50.692;12.844;2023-07-09T00:49:40;13.50;;;8.00;;
69381;SDS011;56560;50.692;12.844;2023-07-09T00:52:32;12.93;;;7.40;;
69381;SDS011;56560;50.692;12.844;2023-07-09T00:55:05;13.40;;;7.85;;
69381;SDS011;56560;50.692;12.844;2023-07-09T00:57:34;14.40;;;8.10;;
69381;SDS011;56560;50.692;12.844;2023-07-09T01:00:05;13.45;;;7.95;;
69381;SDS011;56560;50.692;12.844;2023-07-09T01:02:34;14.88;;;8.63;;
69381;SDS011;56560;50.692;12.844;2023-07-09T01:05:01;14.63;;;8.73;;
69381;SDS011;56560;50.692;12.844;2023-07-09T01:07:29;12.95;;;7.47;;
69381;SDS011;56560;50.692;12.844;2023-07-09T01:09:55;13.82;;;8.35;;
69381;SDS011;56560;50.692;12.844;2023-07-09T01:12:20;15.07;;;8.55;;
69381;SDS011;56560;50.692;12.844;2023-07-09T01:14:48;14.97;;;8.00;;
69381;SDS011;56560;50.692;12.844;2023-07-09T01:17:17;13.73;;;7.60;;
69381;SDS011;56560;50.692;12.844;2023-07-09T01:19:43;13.63;;;7.90;;
69381;SDS011;56560;50.692;12.844;2023-07-09T01:22:14;15.32;;;8.23;;
69381;SDS011;56560;50.692;12.844;2023-07-09T01:24:50;12.85;;;7.47;;
69381;SDS011;56560;50.692;12.844;2023-07-09T01:27:21;13.60;;;7.55;;
69381;SDS011;56560;50.692;12.844;2023-07-09T01:29:51;13.95;;;7.70;;
69381;SDS011;56560;50.692;12.844;2023-07-09T01:32:19;20.38;;;7.88;;
69381;SDS011;56560;50.692;12.844;2023-07-09T01:34:47;17.17;;;7.93;;
69381;SDS011;56560;50.692;12.844;2023-07-09T01:37:16;13.30;;;7.70;;
69381;SDS011;56560;50.692;12.844;2023-07-09T01:39:43;14.40;;;7.75;;
69381;SDS011;56560;50.692;12.844;2023-07-09T01:42:09;13.85;;;7.60;;
69381;SDS011;56560;50.692;12.844;2023-07-09T01:44:35;13.55;;;7.72;;
69381;SDS011;56560;50.692;12.844;2023-07-09T01:47:03;14.32;;;7.75;;
69381;SDS011;56560;50.692;12.844;2023-07-09T01:49:30;15.13;;;7.95;;
69381;SDS011;56560;50.692;12.844;2023-07-09T01:51:58;12.82;;;7.68;;
69381;SDS011;56560;50.692;12.844;2023-07-09T01:54:26;15.73;;;8.35;;
69381;SDS011;56560;50.692;12.844;2023-07-09T01:57:12;15.93;;;8.70;;
69381;SDS011;56560;50.692;12.844;2023-07-09T01:59:41;15.88;;;9.23;;
69381;SDS011;56560;50.692;12.844;2023-07-09T02:02:07;14.60;;;8.63;;
69381;SDS011;56560;50.692;12.844;2023-07-09T02:04:33;14.52;;;8.30;;
69381;SDS011;56560;50.692;12.844;2023-07-09T02:06:59;14.00;;;8.47;;
69381;SDS011;56560;50.692;12.844;2023-07-09T02:09:24;14.15;;;8.32;;
69381;SDS011;56560;50.692;12.844;2023-07-09T02:11:50;15.20;;;8.77;;
69381;SDS011;56560;50.692;12.844;2023-07-09T02:14:16;16.92;;;8.38;;
69381;SDS011;56560;50.692;12.844;2023-07-09T02:16:41;14.87;;;7.43;;
69381;SDS011;56560;50.692;12.844;2023-07-09T02:19:08;14.48;;;7.65;;
69381;SDS011;56560;50.692;12.844;2023-07-09T02:21:34;12.93;;;7.55;;
69381;SDS011;56560;50.692;12.844;2023-07-09T02:24:01;14.02;;;7.72;;
69381;SDS011;56560;50.692;12.844;2023-07-09T02:26:27;14.43;;;7.57;;
69381;SDS011;56560;50.692;12.844;2023-07-09T02:28:52;13.80;;;7.83;;
69381;SDS011;56560;50.692;12.844;2023-07-09T02:31:18;13.30;;;7.70;;
69381;SDS011;56560;50.692;12.844;2023-07-09T02:33:44;14.52;;;7.75;;
69381;SDS011;56560;50.692;12.844;2023-07-09T02:36:10;14.53;;;7.70;;
69381;SDS011;56560;50.692;12.844;2023-07-09T02:38:35;13.30;;;7.63;;
69381;SDS011;56560;50.692;12.844;2023-07-09T02:41:02;14.23;;;7.80;;
69381;SDS011;56560;50.692;12.844;2023-07-09T02:43:27;14.10;;;7.85;;
69381;SDS011;56560;50.692;12.844;2023-07-09T02:45:53;13.73;;;7.73;;
69381;SDS011;56560;50.692;12.844;2023-07-09T02:48:18;14.00;;;7.72;;
69381;SDS011;56560;50.692;12.844;2023-07-09T02:50:44;13.07;;;7.60;;
69381;SDS011;56560;50.692;12.844;2023-07-09T02:53:11;13.63;;;7.13;;
69381;SDS011;56560;50.692;12.844;2023-07-09T02:55:36;13.60;;;7.40;;
69381;SDS011;56560;50.692;12.844;2023-07-09T02:58:02;13.33;;;7.70;;
69381;SDS011;56560;50.692;12.844;2023-07-09T03:00:28;13.25;;;7.45;;
69381;SDS011;56560;50.692;12.844;2023-07-09T03:02:54;13.43;;;7.55;;
69381;SDS011;56560;50.692;12.844;2023-07-09T03:05:21;14.20;;;7.70;;
69381;SDS011;56560;50.692;12.844;2023-07-09T03:07:46;14.73;;;7.13;;
69381;SDS011;56560;50.692;12.844;2023-07-09T03:10:12;13.77;;;7.90;;
69381;SDS011;56560;50.692;12.844;2023-07-09T03:12:38;13.02;;;7.53;;
69381;SDS011;56560;50.692;12.844;2023-07-09T03:15:03;13.20;;;7.50;;
69381;SDS011;56560;50.692;12.844;2023-07-09T03:17:29;13.90;;;7.85;;
69381;SDS011;56560;50.692;12.844;2023-07-09T03:19:55;14.83;;;7.40;;
69381;SDS011;56560;50.692;12.844;2023-07-09T03:22:21;12.57;;;7.28;;
69381;SDS011;56560;50.692;12.844;2023-07-09T03:24:46;14.00;;;7.50;;
69381;SDS011;56560;50.692;12.844;2023-07-09T03:27:12;13.40;;;7.38;;
69381;SDS011;56560;50.692;12.844;2023-07-09T03:29:37;12.37;;;6.77;;
69381;SDS011;56560;50.692;12.844;2023-07-09T03:32:03;13.63;;;7.50;;
69381;SDS011;56560;50.692;12.844;2023-07-09T03:34:29;15.43;;;7.50;;
69381;SDS011;56560;50.692;12.844;2023-07-09T03:36:55;13.25;;;7.25;;
69381;SDS011;56560;50.692;12.844;2023-07-09T03:39:20;12.97;;;7.17;;
69381;SDS011;56560;50.692;12.844;2023-07-09T03:41:46;13.90;;;7.73;;
69381;SDS011;56560;50.692;12.844;2023-07-09T03:44:12;12.98;;;7.88;;
69381;SDS011;56560;50.692;12.844;2023-07-09T03:46:38;15.27;;;8.40;;
69381;SDS011;56560;50.692;12.844;2023-07-09T03:49:03;14.75;;;8.30;;
69381;SDS011;56560;50.692;12.844;2023-07-09T03:51:29;14.43;;;8.23;;
69381;SDS011;56560;50.692;12.844;2023-07-09T03:53:54;14.15;;;7.90;;
69381;SDS011;56560;50.692;12.844;2023-07-09T03:56:20;13.23;;;6.87;;
69381;SDS011;56560;50.692;12.844;2023-07-09T03:58:46;13.05;;;7.53;;
69381;SDS011;56560;50.692;12.844;2023-07-09T04:01:12;14.23;;;7.80;;
69381;SDS011;56560;50.692;12.844;2023-07-09T04:03:37;14.05;;;7.97;;
69381;SDS011;56560;50.692;12.844;2023-07-09T04:06:03;15.40;;;8.47;;
69381;SDS011;56560;50.692;12.844;2023-07-09T04:08:29;14.02;;;7.70;;
69381;SDS011;56560;50.692;12.844;2023-07-09T04:10:58;15.43;;;8.90;;
69381;SDS011;56560;50.692;12.844;2023-07-09T04:13:26;15.35;;;9.00;;
69381;SDS011;56560;50.692;12.844;2023-07-09T04:15:53;16.05;;;9.13;;
69381;SDS011;56560;50.692;12.844;2023-07-09T04:18:19;15.10;;;8.50;;
69381;SDS011;56560;50.692;12.844;2023-07-09T04:20:51;14.43;;;8.60;;
69381;SDS011;56560;50.692;12.844;2023-07-09T04:23:17;17.80;;;9.45;;
69381;SDS011;56560;50.692;12.844;2023-07-09T04:25:44;16.20;;;9.10;;
69381;SDS011;56560;50.692;12.844;2023-07-09T04:28:10;14.45;;;8.45;;
69381;SDS011;56560;50.692;12.844;2023-07-09T04:30:35;15.20;;;8.55;;
69381;SDS011;56560;50.692;12.844;2023-07-09T04:33:02;16.33;;;8.63;;
69381;SDS011;56560;50.692;12.844;2023-07-09T04:35:28;13.75;;;8.45;;
69381;SDS011;56560;50.692;12.844;2023-07-09T04:37:53;14.20;;;7.90;;
69381;SDS011;56560;50.692;12.844;2023-07-09T04:40:20;13.60;;;8.25;;
69381;SDS011;56560;50.692;12.844;2023-07-09T04:42:45;14.43;;;8.18;;
69381;SDS011;56560;50.692;12.844;2023-07-09T04:45:12;15.93;;;8.60;;
69381;SDS011;56560;50.692;12.844;2023-07-09T04:47:38;14.98;;;8.50;;
69381;SDS011;56560;50.692;12.844;2023-07-09T04:50:04;15.18;;;8.48;;
69381;SDS011;56560;50.692;12.844;2023-07-09T04:52:32;14.85;;;8.48;;
69381;SDS011;56560;50.692;12.844;2023-07-09T04:54:58;16.20;;;8.60;;
69381;SDS011;56560;50.692;12.844;2023-07-09T04:57:24;14.20;;;8.50;;
69381;SDS011;56560;50.692;12.844;2023-07-09T04:59:51;13.75;;;8.50;;
69381;SDS011;56560;50.692;12.844;2023-07-09T05:02:16;15.10;;;8.63;;
69381;SDS011;56560;50.692;12.844;2023-07-09T05:04:42;15.67;;;8.23;;
69381;SDS011;56560;50.692;12.844;2023-07-09T05:07:08;14.82;;;8.13;;
69381;SDS011;56560;50.692;12.844;2023-07-09T05:09:33;13.60;;;8.33;;
69381;SDS011;56560;50.692;12.844;2023-07-09T05:11:59;15.68;;;8.45;;
69381;SDS011;56560;50.692;12.844;2023-07-09T05:14:26;14.40;;;8.10;;
69381;SDS011;56560;50.692;12.844;2023-07-09T05:16:52;15.32;;;7.97;;
69381;SDS011;56560;50.692;12.844;2023-07-09T05:19:18;16.55;;;8.05;;
69381;SDS011;56560;50.692;12.844;2023-07-09T05:21:44;14.65;;;7.97;;
69381;SDS011;56560;50.692;12.844;2023-07-09T05:24:09;14.13;;;8.60;;
69381;SDS011;56560;50.692;12.844;2023-07-09T05:26:36;15.43;;;9.10;;
69381;SDS011;56560;50.692;12.844;2023-07-09T05:29:02;13.67;;;8.23;;
69381;SDS011;56560;50.692;12.844;2023-07-09T05:31:30;13.60;;;7.68;;
69381;SDS011;56560;50.692;12.844;2023-07-09T05:33:56;13.77;;;7.40;;
69381;SDS011;56560;50.692;12.844;2023-07-09T05:36:25;13.82;;;7.45;;
69381;SDS011;56560;50.692;12.844;2023-07-09T05:38:52;12.38;;;7.25;;
69381;SDS011;56560;50.692;12.844;2023-07-09T05:41:18;13.73;;;7.43;;
69381;SDS011;56560;50.692;12.844;2023-07-09T05:43:44;13.48;;;7.40;;
69381;SDS011;56560;50.692;12.844;2023-07-09T05:46:10;14.75;;;6.88;;
69381;SDS011;56560;50.692;12.844;2023-07-09T05:48:37;12.30;;;7.10;;
69381;SDS011;56560;50.692;12.844;2023-07-09T05:51:02;11.63;;;6.97;;
69381;SDS011;56560;50.692;12.844;2023-07-09T05:53:28;11.90;;;7.17;;
69381;SDS011;56560;50.692;12.844;2023-07-09T05:55:54;13.77;;;7.00;;
69381;SDS011;56560;50.692;12.844;2023-07-09T05:58:20;11.63;;;7.05;;
69381;SDS011;56560;50.692;12.844;2023-07-09T06:00:49;12.07;;;6.93;;
69381;SDS011;56560;50.692;12.844;2023-07-09T06:03:19;12.10;;;7.10;;
69381;SDS011;56560;50.692;12.844;2023-07-09T06:05:46;11.68;;;6.90;;
69381;SDS011;56560;50.692;12.844;2023-07-09T06:08:15;13.15;;;7.10;;
69381;SDS011;56560;50.692;12.844;2023-07-09T06:10:50;12.57;;;6.97;;
69381;SDS011;56560;50.692;12.844;2023-07-09T06:13:19;12.52;;;7.18;;
69381;SDS011;56560;50.692;12.844;2023-07-09T06:15:46;12.75;;;7.55;;
69381;SDS011;56560;50.692;12.844;2023-07-09T06:18:13;12.57;;;7.28;;
69381;SDS011;56560;50.692;12.844;2023-07-09T06:20:38;12.23;;;6.90;;
69381;SDS011;56560;50.692;12.844;2023-07-09T06:23:04;11.85;;;7.20;;
69381;SDS011;56560;50.692;12.844;2023-07-09T06:25:30;11.33;;;6.83;;
69381;SDS011;56560;50.692;12.844;2023-07-09T06:27:56;12.20;;;7.05;;
69381;SDS011;56560;50.692;12.844;2023-07-09T06:30:22;11.60;;;6.65;;
69381;SDS011;56560;50.692;12.844;2023-07-09T06:32:48;10.80;;;6.85;;
69381;SDS011;56560;50.692;12.844;2023-07-09T06:35:14;11.77;;;7.13;;
69381;SDS011;56560;50.692;12.844;2023-07-09T06:37:40;11.25;;;6.60;;
69381;SDS011;56560;50.692;12.844;2023-07-09T06:40:05;12.57;;;6.80;;
69381;SDS011;56560;50.692;12.844;2023-07-09T06:42:34;10.70;;;6.47;;
69381;SDS011;56560;50.692;12.844;2023-07-09T06:45:01;11.65;;;6.75;;
69381;SDS011;56560;50.692;12.844;2023-07-09T06:47:26;14.67;;;6.37;;
69381;SDS011;56560;50.692;12.844;2023-07-09T06:49:52;10.45;;;6.20;;
69381;SDS011;56560;50.692;12.844;2023-07-09T06:52:18;13.23;;;6.40;;
69381;SDS011;56560;50.692;12.844;2023-07-09T06:54:43;12.52;;;6.25;;
69381;SDS011;56560;50.692;12.844;2023-07-09T06:57:09;11.20;;;6.50;;
69381;SDS011;56560;50.692;12.844;2023-07-09T06:59:34;11.98;;;6.28;;
69381;SDS011;56560;50.692;12.844;2023-07-09T07:02:00;11.60;;;6.10;;
69381;SDS011;56560;50.692;12.844;2023-07-09T07:04:26;12.43;;;6.63;;
69381;SDS011;56560;50.692;12.844;2023-07-09T07:06:52;10.95;;;6.07;;
69381;SDS011;56560;50.692;12.844;2023-07-09T07:09:20;11.38;;;6.40;;
69381;SDS011;56560;50.692;12.844;2023-07-09T07:11:46;10.15;;;6.00;;
69381;SDS011;56560;50.692;12.844;2023-07-09T07:14:11;11.63;;;6.40;;
69381;SDS011;56560;50.692;12.844;2023-07-09T07:16:37;12.43;;;6.60;;
69381;SDS011;56560;50.692;12.844;2023-07-09T07:19:03;10.75;;;6.45;;
69381;SDS011;56560;50.692;12.844;2023-07-09T07:21:28;10.93;;;6.40;;
69381;SDS011;56560;50.692;12.844;2023-07-09T07:23:54;11.97;;;6.33;;
69381;SDS011;56560;50.692;12.844;2023-07-09T07:26:20;11.50;;;5.90;;
69381;SDS011;56560;50.692;12.844;2023-07-09T07:28:46;11.38;;;6.32;;
69381;SDS011;56560;50.692;12.844;2023-07-09T07:31:11;10.83;;;6.10;;
69381;SDS011;56560;50.692;12.844;2023-07-09T07:33:38;11.63;;;6.40;;
69381;SDS011;56560;50.692;12.844;2023-07-09T07:36:06;11.85;;;6.30;;
69381;SDS011;56560;50.692;12.844;2023-07-09T07:38:32;11.15;;;6.22;;
69381;SDS011;56560;50.692;12.844;2023-07-09T07:40:58;11.50;;;6.37;;
69381;SDS011;56560;50.692;12.844;2023-07-09T07:43:25;11.38;;;6.22;;
69381;SDS011;56560;50.692;12.844;2023-07-09T07:45:50;10.30;;;6.20;;
69381;SDS011;56560;50.692;12.844;2023-07-09T07:48:16;11.77;;;6.20;;
69381;SDS011;56560;50.692;12.844;2023-07-09T07:50:41;11.13;;;5.60;;
69381;SDS011;56560;50.692;12.844;2023-07-09T07:53:07;11.82;;;5.70;;
69381;SDS011;56560;50.692;12.844;2023-07-09T07:55:34;11.97;;;5.80;;
69381;SDS011;56560;50.692;12.844;2023-07-09T07:58:01;9.82;;;5.53;;
69381;SDS011;56560;50.692;12.844;2023-07-09T08:00:29;10.52;;;5.78;;
69381;SDS011;56560;50.692;12.844;2023-07-09T08:02:55;13.77;;;5.72;;
69381;SDS011;56560;50.692;12.844;2023-07-09T08:05:20;13.57;;;5.70;;
69381;SDS011;56560;50.692;12.844;2023-07-09T08:07:46;10.35;;;5.35;;
69381;SDS011;56560;50.692;12.844;2023-07-09T08:10:12;13.87;;;11.17;;
69381;SDS011;56560;50.692;12.844;2023-07-09T08:12:38;12.38;;;6.10;;
69381;SDS011;56560;50.692;12.844;2023-07-09T08:15:04;10.82;;;5.20;;
69381;SDS011;56560;50.692;12.844;2023-07-09T08:17:31;11.13;;;5.47;;
69381;SDS011;56560;50.692;12.844;2023-07-09T08:19:56;10.57;;;5.10;;
69381;SDS011;56560;50.692;12.844;2023-07-09T08:22:22;11.03;;;5.50;;
69381;SDS011;56560;50.692;12.844;2023-07-09T08:24:51;9.77;;;5.30;;
69381;SDS011;56560;50.692;12.844;2023-07-09T08:27:17;10.05;;;5.93;;
69381;SDS011;56560;50.692;12.844;2023-07-09T08:29:43;10.20;;;5.80;;
69381;SDS011;56560;50.692;12.844;2023-07-09T08:32:10;11.60;;;5.70;;
69381;SDS011;56560;50.692;12.844;2023-07-09T08:34:37;10.60;;;5.80;;
69381;SDS011;56560;50.692;12.844;2023-07-09T08:37:03;10.77;;;5.80;;
69381;SDS011;56560;50.692;12.844;2023-07-09T08:39:30;11.15;;;6.10;;
69381;SDS011;56560;50.692;12.844;2023-07-09T08:42:00;11.65;;;6.25;;
69381;SDS011;56560;50.692;12.844;2023-07-09T08:50:07;10.32;;;6.03;;
69381;SDS011;56560;50.692;12.844;2023-07-09T08:52:37;11.38;;;6.13;;
69381;SDS011;56560;50.692;12.844;2023-07-09T08:55:09;12.73;;;6.40;;
69381;SDS011;56560;50.692;12.844;2023-07-09T08:57:43;12.83;;;6.00;;
69381;SDS011;56560;50.692;12.844;2023-07-09T09:06:13;10.30;;;6.03;;
69381;SDS011;56560;50.692;12.844;2023-07-09T09:08:51;11.63;;;6.13;;
69381;SDS011;56560;50.692;12.844;2023-07-09T09:11:44;10.90;;;5.90;;
69381;SDS011;56560;50.692;12.844;2023-07-09T09:14:33;10.38;;;5.60;;
69381;SDS011;56560;50.692;12.844;2023-07-09T09:17:02;13.93;;;5.95;;
69381;SDS011;56560;50.692;12.844;2023-07-09T09:19:38;10.88;;;5.60;;
69381;SDS011;56560;50.692;12.844;2023-07-09T09:22:50;12.95;;;5.72;;
69381;SDS011;56560;50.692;12.844;2023-07-09T09:25:33;11.40;;;5.60;;
69381;SDS011;56560;50.692;12.844;2023-07-09T09:28:02;10.57;;;5.65;;
69381;SDS011;56560;50.692;12.844;2023-07-09T09:30:28;9.63;;;5.60;;
69381;SDS011;56560;50.692;12.844;2023-07-09T09:32:58;12.85;;;5.40;;
69381;SDS011;56560;50.692;12.844;2023-07-09T09:35:30;12.25;;;6.00;;
69381;SDS011;56560;50.692;12.844;2023-07-09T09:38:00;9.00;;;5.23;;
69381;SDS011;56560;50.692;12.844;2023-07-09T09:40:27;10.45;;;5.72;;
69381;SDS011;56560;50.692;12.844;2023-07-09T09:42:58;10.65;;;5.45;;
69381;SDS011;56560;50.692;12.844;2023-07-09T09:45:31;9.70;;;5.60;;
69381;SDS011;56560;50.692;12.844;2023-07-09T09:48:00;12.30;;;5.70;;
69381;SDS011;56560;50.692;12.844;2023-07-09T09:50:35;10.67;;;5.13;;
69381;SDS011;56560;50.692;12.844;2023-07-09T09:53:00;9.82;;;5.20;;
69381;SDS011;56560;50.692;12.844;2023-07-09T09:55:29;10.27;;;5.50;;
69381;SDS011;56560;50.692;12.844;2023-07-09T09:57:57;11.52;;;5.53;;
69381;SDS011;56560;50.692;12.844;2023-07-09T10:00:27;9.50;;;5.33;;
69381;SDS011;56560;50.692;12.844;2023-07-09T10:02:57;10.07;;;5.63;;
69381;SDS011;56560;50.692;12.844;2023-07-09T10:05:30;10.60;;;5.70;;
69381;SDS011;56560;50.692;12.844;2023-07-09T10:11:12;10.90;;;5.50;;
69381;SDS011;56560;50.692;12.844;2023-07-09T10:13:46;11.80;;;5.60;;
69381;SDS011;56560;50.692;12.844;2023-07-09T10:21:49;10.50;;;5.13;;
69381;SDS011;56560;50.692;12.844;2023-07-09T10:24:37;9.80;;;5.30;;
69381;SDS011;56560;50.692;12.844;2023-07-09T10:35:47;10.38;;;5.28;;
69381;SDS011;56560;50.692;12.844;2023-07-09T10:38:22;9.95;;;4.97;;
69381;SDS011;56560;50.692;12.844;2023-07-09T10:41:13;10.93;;;5.20;;
69381;SDS011;56560;50.692;12.844;2023-07-09T10:46:19;11.10;;;5.22;;
69381;SDS011;56560;50.692;12.844;2023-07-09T10:48:50;10.95;;;5.07;;
69381;SDS011;56560;50.692;12.844;2023-07-09T10:51:19;10.98;;;5.30;;
69381;SDS011;56560;50.692;12.844;2023-07-09T10:56:41;14.70;;;5.30;;
69381;SDS011;56560;50.692;12.844;2023-07-09T11:04:47;12.93;;;5.63;;
69381;SDS011;56560;50.692;12.844;2023-07-09T11:07:19;11.60;;;5.47;;
69381;SDS011;56560;50.692;12.844;2023-07-09T11:09:58;10.20;;;5.32;;
69381;SDS011;56560;50.692;12.844;2023-07-09T11:17:33;10.15;;;5.60;;
69381;SDS011;56560;50.692;12.844;2023-07-09T11:20:06;10.90;;;5.40;;
69381;SDS011;56560;50.692;12.844;2023-07-09T11:22:40;11.10;;;5.32;;
69381;SDS011;56560;50.692;12.844;2023-07-09T11:27:48;9.30;;;5.07;;
69381;SDS011;56560;50.692;12.844;2023-07-09T11:32:52;12.25;;;5.53;;
69381;SDS011;56560;50.692;12.844;2023-07-09T11:35:22;10.48;;;5.43;;
69381;SDS011;56560;50.692;12.844;2023-07-09T11:37:49;10.15;;;5.68;;
69381;SDS011;56560;50.692;12.844;2023-07-09T11:40:15;10.03;;;5.77;;
69381;SDS011;56560;50.692;12.844;2023-07-09T11:42:48;9.52;;;5.10;;
69381;SDS011;56560;50.692;12.844;2023-07-09T11:45:20;11.02;;;5.50;;
69381;SDS011;56560;50.692;12.844;2023-07-09T11:47:52;10.30;;;5.53;;
69381;SDS011;56560;50.692;12.844;2023-07-09T11:50:33;11.15;;;5.10;;
69381;SDS011;56560;50.692;12.844;2023-07-09T11:55:47;10.30;;;5.72;;
69381;SDS011;56560;50.692;12.844;2023-07-09T11:58:14;10.55;;;5.22;;
69381;SDS011;56560;50.692;12.844;2023-07-09T12:00:44;11.63;;;5.07;;
69381;SDS011;56560;50.692;12.844;2023-07-09T12:03:20;10.93;;;5.00;;
69381;SDS011;56560;50.692;12.844;2023-07-09T12:05:52;10.77;;;5.03;;
69381;SDS011;56560;50.692;12.844;2023-07-09T12:08:29;11.43;;;5.70;;
69381;SDS011;56560;50.692;12.844;2023-07-09T12:11:06;8.60;;;5.00;;
69381;SDS011;56560;50.692;12.844;2023-07-09T12:13:42;10.82;;;5.50;;
69381;SDS011;56560;50.692;12.844;2023-07-09T12:16:25;11.70;;;5.30;;
69381;SDS011;56560;50.692;12.844;2023-07-09T12:18:58;10.65;;;5.00;;
69381;SDS011;56560;50.692;12.844;2023-07-09T12:21:26;11.23;;;5.20;;
69381;SDS011;56560;50.692;12.844;2023-07-09T12:23:53;11.68;;;5.05;;
69381;SDS011;56560;50.692;12.844;2023-07-09T12:26:20;10.60;;;5.20;;
69381;SDS011;56560;50.692;12.844;2023-07-09T12:28:50;9.75;;;5.20;;
69381;SDS011;56560;50.692;12.844;2023-07-09T12:31:24;9.05;;;4.63;;
69381;SDS011;56560;50.692;12.844;2023-07-09T12:33:53;9.23;;;5.18;;
69381;SDS011;56560;50.692;12.844;2023-07-09T12:36:20;11.50;;;5.17;;
69381;SDS011;56560;50.692;12.844;2023-07-09T12:38:50;10.18;;;4.80;;
69381;SDS011;56560;50.692;12.844;2023-07-09T12:41:22;9.80;;;4.90;;
69381;SDS011;56560;50.692;12.844;2023-07-09T12:43:52;9.63;;;5.00;;
69381;SDS011;56560;50.692;12.844;2023-07-09T12:46:20;9.68;;;5.30;;
69381;SDS011;56560;50.692;12.844;2023-07-09T12:48:47;9.50;;;5.30;;
69381;SDS011;56560;50.692;12.844;2023-07-09T12:51:16;9.77;;;5.30;;
69381;SDS011;56560;50.692;12.844;2023-07-09T12:53:46;10.35;;;5.40;;
69381;SDS011;56560;50.692;12.844;2023-07-09T12:56:13;10.38;;;5.65;;
69381;SDS011;56560;50.692;12.844;2023-07-09T12:58:42;9.98;;;5.10;;
69381;SDS011;56560;50.692;12.844;2023-07-09T13:01:17;10.17;;;5.37;;
69381;SDS011;56560;50.692;12.844;2023-07-09T13:03:51;9.70;;;4.60;;
69381;SDS011;56560;50.692;12.844;2023-07-09T13:06:34;8.75;;;5.10;;
69381;SDS011;56560;50.692;12.844;2023-07-09T13:09:01;9.38;;;5.15;;
69381;SDS011;56560;50.692;12.844;2023-07-09T13:11:36;11.15;;;5.70;;
69381;SDS011;56560;50.692;12.844;2023-07-09T13:14:05;9.10;;;5.30;;
69381;SDS011;56560;50.692;12.844;2023-07-09T13:16:42;10.85;;;5.10;;
69381;SDS011;56560;50.692;12.844;2023-07-09T13:19:08;9.73;;;4.85;;
69381;SDS011;56560;50.692;12.844;2023-07-09T13:21:34;9.90;;;4.77;;
69381;SDS011;56560;50.692;12.844;2023-07-09T13:24:01;10.40;;;5.13;;
69381;SDS011;56560;50.692;12.844;2023-07-09T13:26:29;9.90;;;4.68;;
69381;SDS011;56560;50.692;12.844;2023-07-09T13:28:55;11.10;;;5.13;;
69381;SDS011;56560;50.692;12.844;2023-07-09T13:31:20;13.30;;;5.20;;
69381;SDS011;56560;50.692;12.844;2023-07-09T13:33:53;9.57;;;4.85;;
69381;SDS011;56560;50.692;12.844;2023-07-09T13:36:22;10.30;;;5.13;;
69381;SDS011;56560;50.692;12.844;2023-07-09T13:38:47;9.83;;;4.93;;
69381;SDS011;56560;50.692;12.844;2023-07-09T13:41:16;8.40;;;4.75;;
69381;SDS011;56560;50.692;12.844;2023-07-09T13:43:47;9.73;;;5.35;;
69381;SDS011;56560;50.692;12.844;2023-07-09T13:46:13;11.27;;;5.22;;
69381;SDS011;56560;50.692;12.844;2023-07-09T13:48:40;10.60;;;5.05;;
69381;SDS011;56560;50.692;12.844;2023-07-09T13:51:13;9.32;;;5.28;;
69381;SDS011;56560;50.692;12.844;2023-07-09T13:53:39;9.30;;;5.40;;
69381;SDS011;56560;50.692;12.844;2023-07-09T13:56:05;8.97;;;5.03;;
69381;SDS011;56560;50.692;12.844;2023-07-09T13:58:33;9.50;;;5.20;;
69381;SDS011;56560;50.692;12.844;2023-07-09T14:01:01;10.93;;;5.28;;
69381;SDS011;56560;50.692;12.844;2023-07-09T14:03:35;8.98;;;5.18;;
69381;SDS011;56560;50.692;12.844;2023-07-09T14:06:04;10.63;;;5.40;;
69381;SDS011;56560;50.692;12.844;2023-07-09T14:08:30;9.32;;;4.93;;
69381;SDS011;56560;50.692;12.844;2023-07-09T14:10:56;11.90;;;5.10;;
69381;SDS011;56560;50.692;12.844;2023-07-09T14:13:23;8.83;;;4.80;;
69381;SDS011;56560;50.692;12.844;2023-07-09T14:15:49;9.82;;;5.07;;
69381;SDS011;56560;50.692;12.844;2023-07-09T14:18:16;11.80;;;5.00;;
69381;SDS011;56560;50.692;12.844;2023-07-09T14:20:43;9.93;;;5.25;;
69381;SDS011;56560;50.692;12.844;2023-07-09T14:23:13;12.15;;;4.93;;
69381;SDS011;56560;50.692;12.844;2023-07-09T14:25:40;9.10;;;4.90;;
69381;SDS011;56560;50.692;12.844;2023-07-09T14:28:10;10.17;;;4.60;;
69381;SDS011;56560;50.692;12.844;2023-07-09T14:30:39;9.75;;;5.22;;
69381;SDS011;56560;50.692;12.844;2023-07-09T14:33:09;9.73;;;5.05;;
69381;SDS011;56560;50.692;12.844;2023-07-09T14:35:39;9.32;;;5.10;;
69381;SDS011;56560;50.692;12.844;2023-07-09T14:38:06;9.80;;;5.00;;
69381;SDS011;56560;50.692;12.844;2023-07-09T14:40:45;8.77;;;5.07;;
69381;SDS011;56560;50.692;12.844;2023-07-09T14:43:12;10.50;;;5.10;;
69381;SDS011;56560;50.692;12.844;2023-07-09T14:45:37;9.37;;;5.07;;
69381;SDS011;56560;50.692;12.844;2023-07-09T14:48:12;9.50;;;5.10;;
69381;SDS011;56560;50.692;12.844;2023-07-09T14:50:39;10.38;;;4.93;;
69381;SDS011;56560;50.692;12.844;2023-07-09T14:53:13;9.63;;;5.38;;
69381;SDS011;56560;50.692;12.844;2023-07-09T14:55:46;11.00;;;5.20;;
69381;SDS011;56560;50.692;12.844;2023-07-09T14:58:14;9.48;;;4.93;;
69381;SDS011;56560;50.692;12.844;2023-07-09T15:00:43;9.48;;;4.97;;
69381;SDS011;56560;50.692;12.844;2023-07-09T15:03:11;11.10;;;5.05;;
69381;SDS011;56560;50.692;12.844;2023-07-09T15:05:48;9.93;;;5.20;;
69381;SDS011;56560;50.692;12.844;2023-07-09T15:08:15;8.98;;;5.03;;
69381;SDS011;56560;50.692;12.844;2023-07-09T15:10:43;10.02;;;5.10;;
69381;SDS011;56560;50.692;12.844;2023-07-09T15:16:07;9.85;;;5.20;;
69381;SDS011;56560;50.692;12.844;2023-07-09T15:18:33;10.70;;;4.97;;
69381;SDS011;56560;50.692;12.844;2023-07-09T15:21:01;8.93;;;5.20;;
69381;SDS011;56560;50.692;12.844;2023-07-09T15:23:28;9.77;;;5.32;;
69381;SDS011;56560;50.692;12.844;2023-07-09T15:25:55;11.63;;;5.22;;
69381;SDS011;56560;50.692;12.844;2023-07-09T15:28:21;12.20;;;5.00;;
69381;SDS011;56560;50.692;12.844;2023-07-09T15:30:47;8.85;;;5.30;;